Time;durP1;ratioP1;P1;durP2;ratioP2;P2;SDS_P1;SDS_P2;PMS_P1;PMS_P2;Temp;Humidity;BMP_temperature;BMP_pressure;BME280_temperature;BME280_humidity;BME280_pressure;Samples;Min_cycle;Max_cycle;Signal;HPM_P1;HPM_P2
2024/04/13 00:02:07;;;;;;;3.20;2.90;;;;;;;;;;5416306;26;20435;-81
2024/04/13 00:04:33;;;;;;;4.38;3.58;;;;;;;;;;5416303;26;20324;-81
2024/04/13 00:06:59;;;;;;;3.97;3.08;;;;;;;;;;5416296;26;20676;-81
2024/04/13 00:09:26;;;;;;;10.82;5.68;;;;;;;;;;5415967;26;20407;-81
2024/04/13 00:11:52;;;;;;;9.60;5.63;;;;;;;;;;5416245;26;20366;-82
2024/04/13 00:14:17;;;;;;;14.15;5.93;;;;;;;;;;5417105;26;20324;-81
2024/04/13 00:16:44;;;;;;;27.90;9.98;;;;;;;;;;5415620;26;20336;-82
2024/04/13 00:19:11;;;;;;;34.85;12.90;;;;;;;;;;5415678;26;20371;-82
2024/04/13 00:21:37;;;;;;;20.13;9.18;;;;;;;;;;5415522;26;20327;-82
2024/04/13 00:24:03;;;;;;;32.60;11.55;;;;;;;;;;5415505;26;20363;-81
2024/04/13 00:26:29;;;;;;;22.60;8.85;;;;;;;;;;5415616;26;20323;-81
2024/04/13 00:28:55;;;;;;;19.60;8.25;;;;;;;;;;5414730;26;20381;-81
2024/04/13 00:31:21;;;;;;;21.15;9.27;;;;;;;;;;5415504;26;20331;-82
2024/04/13 00:33:47;;;;;;;14.55;7.20;;;;;;;;;;5415170;26;20924;-81
2024/04/13 00:36:13;;;;;;;11.45;6.18;;;;;;;;;;5415331;26;20332;-82
2024/04/13 00:38:39;;;;;;;5.78;4.15;;;;;;;;;;5415148;26;20368;-81
2024/04/13 00:41:05;;;;;;;7.38;4.35;;;;;;;;;;5415560;26;20681;-81
2024/04/13 00:43:31;;;;;;;5.50;4.20;;;;;;;;;;5415164;26;20361;-81
2024/04/13 00:46:06;;;;;;;7.25;4.60;;;;;;;;;;5443228;26;20418;-81
2024/04/13 00:48:32;;;;;;;7.07;4.95;;;;;;;;;;5415144;26;20422;-82
2024/04/13 00:51:00;;;;;;;7.10;5.18;;;;;;;;;;5415838;26;20795;-81
2024/04/13 00:53:27;;;;;;;6.75;4.95;;;;;;;;;;5412186;26;20343;-81
2024/04/13 00:55:54;;;;;;;5.90;4.57;;;;;;;;;;5415183;26;20825;-82
2024/04/13 00:58:26;;;;;;;6.05;4.45;;;;;;;;;;5413377;26;20408;-81
2024/04/13 01:00:52;;;;;;;6.80;4.72;;;;;;;;;;5415373;26;20332;-81
2024/04/13 01:03:22;;;;;;;5.43;4.20;;;;;;;;;;5413190;26;20365;-81
2024/04/13 01:05:48;;;;;;;6.40;4.18;;;;;;;;;;5415456;26;20323;-82
2024/04/13 01:08:18;;;;;;;4.50;3.80;;;;;;;;;;5415174;26;20441;-82
2024/04/13 01:10:45;;;;;;;4.25;3.78;;;;;;;;;;5415018;26;20331;-82
2024/04/13 01:13:11;;;;;;;4.20;3.47;;;;;;;;;;5415331;26;20323;-81
2024/04/13 01:15:38;;;;;;;4.63;3.60;;;;;;;;;;5415559;26;20324;-81
2024/04/13 01:18:04;;;;;;;3.47;3.15;;;;;;;;;;5415411;26;20328;-81
2024/04/13 01:20:31;;;;;;;3.33;2.90;;;;;;;;;;5415577;26;20336;-81
2024/04/13 01:22:57;;;;;;;3.40;2.90;;;;;;;;;;5415095;26;20372;-81
2024/04/13 01:25:23;;;;;;;4.18;2.92;;;;;;;;;;5414891;26;20328;-81
2024/04/13 01:27:49;;;;;;;4.28;2.95;;;;;;;;;;5414675;26;20336;-81
2024/04/13 01:30:16;;;;;;;3.20;2.90;;;;;;;;;;5414585;26;20327;-81
2024/04/13 01:32:43;;;;;;;2.88;2.67;;;;;;;;;;5414917;26;20331;-81
2024/04/13 01:35:11;;;;;;;3.13;2.70;;;;;;;;;;5414836;26;20375;-81
2024/04/13 01:37:38;;;;;;;3.05;2.55;;;;;;;;;;5414344;26;20373;-82
2024/04/13 01:40:04;;;;;;;3.65;2.60;;;;;;;;;;5414529;26;20817;-81
2024/04/13 01:42:30;;;;;;;3.33;2.30;;;;;;;;;;5414452;26;20328;-81
2024/04/13 01:44:56;;;;;;;2.60;2.40;;;;;;;;;;5414453;26;20368;-81
2024/04/13 01:47:22;;;;;;;2.78;2.53;;;;;;;;;;5414340;26;20677;-81
2024/04/13 01:49:48;;;;;;;2.83;2.43;;;;;;;;;;5413534;26;20360;-81
2024/04/13 01:52:14;;;;;;;4.43;2.70;;;;;;;;;;5442303;26;20801;-81
2024/04/13 01:54:41;;;;;;;3.20;2.50;;;;;;;;;;5415677;26;20364;-82
2024/04/13 01:57:07;;;;;;;2.67;2.45;;;;;;;;;;5416550;26;20816;-81
2024/04/13 01:59:33;;;;;;;2.67;2.28;;;;;;;;;;5415456;26;20335;-81
2024/04/13 02:01:59;;;;;;;2.53;2.33;;;;;;;;;;5414838;26;20319;-82
2024/04/13 02:04:25;;;;;;;2.50;2.30;;;;;;;;;;5415499;26;20328;-81
2024/04/13 02:06:51;;;;;;;2.60;2.40;;;;;;;;;;5419583;26;20324;-82
2024/04/13 02:09:18;;;;;;;2.63;2.40;;;;;;;;;;5418341;26;20674;-81
2024/04/13 02:11:45;;;;;;;2.30;2.10;;;;;;;;;;5418303;26;20332;-81
2024/04/13 02:14:11;;;;;;;3.03;2.47;;;;;;;;;;5418281;26;20327;-82
2024/04/13 02:16:37;;;;;;;3.22;2.35;;;;;;;;;;5417899;26;20720;-81
2024/04/13 02:19:06;;;;;;;2.47;2.27;;;;;;;;;;5418327;26;20354;-81
2024/04/13 02:21:32;;;;;;;7.72;4.43;;;;;;;;;;5421691;26;20363;-81
2024/04/13 02:23:58;;;;;;;6.07;3.72;;;;;;;;;;5382178;26;20444;-81
2024/04/13 02:26:24;;;;;;;4.03;3.20;;;;;;;;;;5381912;26;20326;-81
2024/04/13 02:28:51;;;;;;;4.13;3.33;;;;;;;;;;5381491;26;20382;-81
2024/04/13 02:31:17;;;;;;;3.22;2.75;;;;;;;;;;5381603;26;20337;-81
2024/04/13 02:33:43;;;;;;;3.30;2.72;;;;;;;;;;5439981;26;20374;-81
2024/04/13 02:36:09;;;;;;;4.30;2.50;;;;;;;;;;5382689;26;20795;-81
2024/04/13 02:38:35;;;;;;;4.25;2.50;;;;;;;;;;5382232;26;20390;-81
2024/04/13 02:41:03;;;;;;;2.95;2.65;;;;;;;;;;5382508;26;20712;-81
2024/04/13 02:43:35;;;;;;;2.88;2.42;;;;;;;;;;5382706;26;20318;-81
2024/04/13 02:46:08;;;;;;;2.83;2.53;;;;;;;;;;5382170;26;20365;-81
2024/04/13 02:48:42;;;;;;;3.17;2.30;;;;;;;;;;5382276;26;20338;-81
2024/04/13 02:51:09;;;;;;;2.70;2.50;;;;;;;;;;5382853;26;20322;-81
2024/04/13 02:53:35;;;;;;;3.27;2.60;;;;;;;;;;5413378;26;20849;-81
2024/04/13 02:56:01;;;;;;;4.13;2.42;;;;;;;;;;5415982;26;20378;-81
2024/04/13 02:58:27;;;;;;;4.03;3.05;;;;;;;;;;5418047;26;20323;-81
2024/04/13 03:00:54;;;;;;;3.35;2.70;;;;;;;;;;5418002;26;20331;-81
2024/04/13 03:03:20;;;;;;;3.20;2.70;;;;;;;;;;5417887;26;20348;-82
2024/04/13 03:05:46;;;;;;;3.50;2.70;;;;;;;;;;5417928;26;20331;-81
2024/04/13 03:08:12;;;;;;;3.35;2.95;;;;;;;;;;5417384;26;20462;-81
2024/04/13 03:10:38;;;;;;;3.55;2.80;;;;;;;;;;5416993;26;20319;-81
2024/04/13 03:13:05;;;;;;;2.93;2.53;;;;;;;;;;5417176;26;20928;-81
2024/04/13 03:15:31;;;;;;;2.60;2.17;;;;;;;;;;5414386;26;20312;-81
2024/04/13 03:17:58;;;;;;;2.53;2.33;;;;;;;;;;5416328;26;20401;-81
2024/04/13 03:20:25;;;;;;;3.42;2.35;;;;;;;;;;5416853;26;20332;-81
2024/04/13 03:22:51;;;;;;;4.18;2.40;;;;;;;;;;5417122;26;20316;-81
2024/04/13 03:25:17;;;;;;;2.92;2.60;;;;;;;;;;5417015;26;20365;-81
2024/04/13 03:27:43;;;;;;;2.92;2.40;;;;;;;;;;5416725;26;20356;-81
2024/04/13 03:30:09;;;;;;;2.97;2.67;;;;;;;;;;5416688;26;20347;-81
2024/04/13 03:32:36;;;;;;;2.70;2.50;;;;;;;;;;5416712;26;20391;-81
2024/04/13 03:35:03;;;;;;;2.80;2.60;;;;;;;;;;5416787;26;20312;-81
2024/04/13 03:37:29;;;;;;;4.03;2.58;;;;;;;;;;5416536;26;20367;-81
2024/04/13 03:39:55;;;;;;;4.00;2.72;;;;;;;;;;5416427;26;20434;-81
2024/04/13 03:42:21;;;;;;;3.42;2.50;;;;;;;;;;5416213;26;20348;-81
2024/04/13 03:44:47;;;;;;;2.50;2.30;;;;;;;;;;5416249;26;20324;-81
2024/04/13 03:47:13;;;;;;;3.05;2.75;;;;;;;;;;5416565;26;20319;-81
2024/04/13 03:49:39;;;;;;;3.83;2.80;;;;;;;;;;5416880;26;20485;-81
2024/04/13 03:52:05;;;;;;;2.85;2.65;;;;;;;;;;5417110;26;20812;-81
2024/04/13 03:54:31;;;;;;;3.77;2.70;;;;;;;;;;5416519;26;20429;-81
2024/04/13 03:56:57;;;;;;;2.90;2.60;;;;;;;;;;5416733;26;20323;-82
2024/04/13 03:59:23;;;;;;;4.18;3.30;;;;;;;;;;5416626;26;20352;-81
2024/04/13 04:01:50;;;;;;;4.87;3.20;;;;;;;;;;5416327;26;20316;-81
2024/04/13 04:04:16;;;;;;;4.20;3.05;;;;;;;;;;5416672;26;20357;-81
2024/04/13 04:06:43;;;;;;;4.45;3.17;;;;;;;;;;5416791;26;20876;-81
2024/04/13 04:09:10;;;;;;;4.68;3.50;;;;;;;;;;5416386;26;20316;-81
2024/04/13 04:11:36;;;;;;;24.63;11.55;;;;;;;;;;5416442;26;20320;-81
2024/04/13 04:14:02;;;;;;;19.52;10.63;;;;;;;;;;5416146;26;20670;-81
2024/04/13 04:16:29;;;;;;;23.13;10.70;;;;;;;;;;5416496;26;20344;-81
2024/04/13 04:18:55;;;;;;;16.38;8.52;;;;;;;;;;5416111;26;20375;-81
2024/04/13 04:21:24;;;;;;;12.18;7.28;;;;;;;;;;5416058;26;20661;-81
2024/04/13 04:23:50;;;;;;;10.38;6.43;;;;;;;;;;5415918;26;20393;-81
2024/04/13 04:26:16;;;;;;;5.43;4.20;;;;;;;;;;5416398;26;20311;-81
2024/04/13 04:28:42;;;;;;;3.93;3.30;;;;;;;;;;5416201;26;20438;-81
2024/04/13 04:31:10;;;;;;;3.55;3.20;;;;;;;;;;5413081;26;20324;-81
2024/04/13 04:33:36;;;;;;;3.40;2.80;;;;;;;;;;5415899;26;20414;-81
2024/04/13 04:36:02;;;;;;;4.78;3.63;;;;;;;;;;5416249;26;20323;-81
2024/04/13 04:38:28;;;;;;;5.33;4.03;;;;;;;;;;5416006;26;20362;-82
2024/04/13 04:40:54;;;;;;;5.63;4.20;;;;;;;;;;5414437;26;20374;-81
2024/04/13 04:43:20;;;;;;;5.88;3.33;;;;;;;;;;5416523;26;20384;-81
2024/04/13 04:45:46;;;;;;;3.28;2.90;;;;;;;;;;5416147;26;20414;-81
2024/04/13 04:48:12;;;;;;;3.40;3.00;;;;;;;;;;5416947;26;20482;-81
2024/04/13 04:50:38;;;;;;;3.70;3.28;;;;;;;;;;5415870;26;20364;-81
2024/04/13 04:53:04;;;;;;;6.30;3.67;;;;;;;;;;5415989;26;20367;-81
2024/04/13 04:55:30;;;;;;;4.00;3.63;;;;;;;;;;5415698;26;20319;-81
2024/04/13 04:57:56;;;;;;;5.23;4.73;;;;;;;;;;5415231;26;20335;-81
2024/04/13 05:00:22;;;;;;;6.43;5.00;;;;;;;;;;5415596;26;20751;-81
2024/04/13 05:02:48;;;;;;;5.50;5.00;;;;;;;;;;5415849;26;20324;-81
2024/04/13 05:05:15;;;;;;;6.10;5.50;;;;;;;;;;5415812;26;20316;-81
2024/04/13 05:08:27;;;;;;;8.20;4.82;;;;;;;;;;5529423;25;20332;-81
2024/04/13 05:10:53;;;;;;;4.63;4.15;;;;;;;;;;5507209;26;20369;-81
2024/04/13 05:13:19;;;;;;;4.35;3.60;;;;;;;;;;5506599;26;20325;-81
2024/04/13 05:15:45;;;;;;;3.92;2.70;;;;;;;;;;5506870;26;20377;-81
2024/04/13 05:18:11;;;;;;;3.60;2.90;;;;;;;;;;5506594;25;20333;-81
2024/04/13 05:20:37;;;;;;;4.25;3.30;;;;;;;;;;5506435;26;20370;-81
2024/04/13 05:23:05;;;;;;;3.10;2.80;;;;;;;;;;5506351;26;20803;-81
2024/04/13 05:25:31;;;;;;;3.92;2.90;;;;;;;;;;5506228;26;20326;-81
2024/04/13 05:27:57;;;;;;;4.65;3.60;;;;;;;;;;5505924;25;20704;-81
2024/04/13 05:30:23;;;;;;;5.47;4.13;;;;;;;;;;5506204;26;20419;-81
2024/04/13 05:32:49;;;;;;;6.25;5.35;;;;;;;;;;5506036;26;20329;-81
2024/04/13 05:35:16;;;;;;;5.70;5.20;;;;;;;;;;5506562;26;20361;-80
2024/04/13 05:37:42;;;;;;;8.20;7.35;;;;;;;;;;5506250;25;20333;-81
2024/04/13 05:40:09;;;;;;;7.38;6.10;;;;;;;;;;5505961;26;20404;-80
2024/04/13 05:42:35;;;;;;;6.45;5.88;;;;;;;;;;5506573;26;20321;-81
2024/04/13 05:45:01;;;;;;;5.00;4.60;;;;;;;;;;5506192;26;20344;-81
2024/04/13 05:47:27;;;;;;;4.93;4.22;;;;;;;;;;5505843;26;20337;-83
2024/04/13 05:49:53;;;;;;;3.80;3.50;;;;;;;;;;5505709;26;20362;-81
2024/04/13 05:52:19;;;;;;;3.72;3.42;;;;;;;;;;5504312;26;20321;-81
2024/04/13 05:54:45;;;;;;;4.77;3.20;;;;;;;;;;5506657;26;20428;-81
2024/04/13 05:57:13;;;;;;;3.95;3.17;;;;;;;;;;5507696;26;20317;-81
2024/04/13 05:59:41;;;;;;;3.55;2.95;;;;;;;;;;5506606;26;20326;-81
2024/04/13 06:02:07;;;;;;;2.95;2.65;;;;;;;;;;5508343;26;20985;-81
2024/04/13 06:04:33;;;;;;;3.63;3.30;;;;;;;;;;5510305;26;20367;-81
2024/04/13 06:06:59;;;;;;;3.40;3.10;;;;;;;;;;5508930;26;20346;-81
2024/04/13 06:09:25;;;;;;;3.67;3.08;;;;;;;;;;5509982;26;20385;-81
2024/04/13 06:11:51;;;;;;;7.43;4.10;;;;;;;;;;5508517;26;20834;-81
2024/04/13 06:14:17;;;;;;;5.68;3.65;;;;;;;;;;5505614;26;20438;-77
2024/04/13 06:16:44;;;;;;;7.00;3.92;;;;;;;;;;5505039;26;20346;-78
2024/04/13 06:19:13;;;;;;;4.57;4.13;;;;;;;;;;5493080;26;20326;-76
2024/04/13 06:21:39;;;;;;;6.05;3.97;;;;;;;;;;5488958;26;20415;-77
2024/04/13 06:24:05;;;;;;;4.82;3.75;;;;;;;;;;5491291;26;20326;-77
2024/04/13 06:26:31;;;;;;;4.67;3.97;;;;;;;;;;5489421;26;20322;-73
2024/04/13 06:28:57;;;;;;;4.38;3.90;;;;;;;;;;5488516;26;20374;-73
2024/04/13 06:31:23;;;;;;;6.50;4.13;;;;;;;;;;5488252;26;20351;-73
2024/04/13 06:33:49;;;;;;;372.43;288.30;;;;;;;;;;5488613;26;20318;-73
2024/04/13 06:36:16;;;;;;;876.15;726.30;;;;;;;;;;5488934;26;20419;-73
2024/04/13 06:38:42;;;;;;;122.53;82.63;;;;;;;;;;5488688;26;20386;-73
2024/04/13 06:41:08;;;;;;;19.95;14.63;;;;;;;;;;5488486;26;20322;-72
2024/04/13 06:43:34;;;;;;;6.80;3.90;;;;;;;;;;5488504;26;20713;-73
2024/04/13 06:46:00;;;;;;;4.50;4.10;;;;;;;;;;5488298;26;20310;-73
2024/04/13 06:48:26;;;;;;;4.50;3.78;;;;;;;;;;5488677;26;20342;-73
2024/04/13 06:50:52;;;;;;;4.50;3.70;;;;;;;;;;5487997;26;20407;-73
2024/04/13 06:53:18;;;;;;;4.20;3.20;;;;;;;;;;5488419;26;20925;-73
2024/04/13 06:55:45;;;;;;;4.13;3.72;;;;;;;;;;5488175;26;20374;-73
2024/04/13 06:58:11;;;;;;;4.82;3.78;;;;;;;;;;5488125;26;20369;-73
2024/04/13 07:00:37;;;;;;;4.63;3.90;;;;;;;;;;5488277;26;20930;-72
2024/04/13 07:03:03;;;;;;;6.35;4.13;;;;;;;;;;5488627;26;20412;-72
2024/04/13 07:05:29;;;;;;;6.30;4.70;;;;;;;;;;5488139;26;20374;-72
2024/04/13 07:07:55;;;;;;;4.78;4.10;;;;;;;;;;5488162;26;20705;-72
2024/04/13 07:10:21;;;;;;;4.80;4.30;;;;;;;;;;5488322;26;20318;-72
2024/04/13 07:12:47;;;;;;;4.60;4.10;;;;;;;;;;5488711;26;20405;-72
2024/04/13 07:15:13;;;;;;;4.95;4.45;;;;;;;;;;5488240;26;20322;-71
2024/04/13 07:17:39;;;;;;;5.22;4.60;;;;;;;;;;5488201;26;20388;-72
2024/04/13 07:20:06;;;;;;;5.75;4.90;;;;;;;;;;5487913;26;20322;-73
2024/04/13 07:22:33;;;;;;;5.82;4.25;;;;;;;;;;5487713;26;20754;-72
2024/04/13 07:24:59;;;;;;;5.47;4.55;;;;;;;;;;5486076;26;20486;-73
2024/04/13 07:27:25;;;;;;;5.53;5.00;;;;;;;;;;5487773;26;20383;-73
2024/04/13 07:29:51;;;;;;;5.70;5.07;;;;;;;;;;5486678;26;20334;-73
2024/04/13 07:32:17;;;;;;;7.00;5.18;;;;;;;;;;5487834;26;20676;-73
2024/04/13 07:34:43;;;;;;;6.30;5.10;;;;;;;;;;5487706;26;20839;-73
2024/04/13 07:37:09;;;;;;;6.97;5.47;;;;;;;;;;5490217;26;20458;-79
2024/04/13 07:39:35;;;;;;;7.73;5.20;;;;;;;;;;5492131;26;20500;-79
2024/04/13 07:42:01;;;;;;;7.15;5.35;;;;;;;;;;5491430;26;20354;-79
2024/04/13 07:44:27;;;;;;;7.40;6.15;;;;;;;;;;5489247;26;20366;-76
2024/04/13 07:46:53;;;;;;;352.90;280.05;;;;;;;;;;5487516;26;20414;-76
2024/04/13 07:49:20;;;;;;;32.55;22.95;;;;;;;;;;5487214;26;20326;-75
2024/04/13 07:51:46;;;;;;;81.90;45.70;;;;;;;;;;5487177;26;20326;-75
2024/04/13 07:54:12;;;;;;;58.80;35.90;;;;;;;;;;5487035;26;20681;-75
2024/04/13 07:56:38;;;;;;;30.20;18.90;;;;;;;;;;5487326;26;20397;-75
2024/04/13 07:59:04;;;;;;;322.45;200.38;;;;;;;;;;5487603;26;20809;-75
2024/04/13 08:01:30;;;;;;;362.07;229.63;;;;;;;;;;5487022;26;20342;-76
2024/04/13 08:03:56;;;;;;;13.05;10.75;;;;;;;;;;5487221;26;20820;-75
2024/04/13 08:06:22;;;;;;;10.30;9.18;;;;;;;;;;5486806;26;20350;-75
2024/04/13 08:08:48;;;;;;;9.80;7.03;;;;;;;;;;5488277;26;20405;-71
2024/04/13 08:11:14;;;;;;;7.80;7.00;;;;;;;;;;5487483;26;20318;-71
2024/04/13 08:13:40;;;;;;;12.60;7.10;;;;;;;;;;5487396;26;20350;-72
2024/04/13 08:16:06;;;;;;;9.57;7.90;;;;;;;;;;5487449;26;20330;-73
2024/04/13 08:18:33;;;;;;;10.00;7.28;;;;;;;;;;5486940;26;20416;-72
2024/04/13 08:20:59;;;;;;;7.97;7.18;;;;;;;;;;5486928;26;20310;-72
2024/04/13 08:23:25;;;;;;;7.38;6.60;;;;;;;;;;5487447;26;20964;-72
2024/04/13 08:25:51;;;;;;;9.18;6.20;;;;;;;;;;5487216;26;20314;-72
2024/04/13 08:28:16;;;;;;;9.38;6.45;;;;;;;;;;5486679;26;20427;-72
2024/04/13 08:30:43;;;;;;;8.40;7.03;;;;;;;;;;5486414;26;20681;-72
2024/04/13 08:33:09;;;;;;;9.55;6.85;;;;;;;;;;5486759;26;20322;-71
2024/04/13 08:35:35;;;;;;;9.60;7.10;;;;;;;;;;5486855;26;20913;-72
2024/04/13 08:38:01;;;;;;;7.00;5.55;;;;;;;;;;5486615;26;20319;-71
2024/04/13 08:40:27;;;;;;;8.77;6.10;;;;;;;;;;5486695;26;20408;-72
2024/04/13 08:42:53;;;;;;;8.15;6.07;;;;;;;;;;5486452;26;20318;-72
2024/04/13 08:45:22;;;;;;;6.05;5.25;;;;;;;;;;5486816;26;20319;-71
2024/04/13 08:47:50;;;;;;;7.40;5.10;;;;;;;;;;5486385;26;20311;-80
2024/04/13 08:50:16;;;;;;;6.70;5.57;;;;;;;;;;5486591;26;20751;-74
2024/04/13 08:52:45;;;;;;;6.85;5.55;;;;;;;;;;5486881;26;20315;-73
2024/04/13 08:55:11;;;;;;;5.80;5.13;;;;;;;;;;5486484;26;20415;-74
2024/04/13 08:57:37;;;;;;;7.05;5.00;;;;;;;;;;5485862;26;20318;-74
2024/04/13 09:00:08;;;;;;;6.25;5.13;;;;;;;;;;5486259;26;20354;-74
2024/04/13 09:02:36;;;;;;;9.18;5.40;;;;;;;;;;5486269;26;20331;-75
2024/04/13 09:05:03;;;;;;;8.93;5.65;;;;;;;;;;5486346;26;20318;-75
2024/04/13 09:07:31;;;;;;;5.70;5.10;;;;;;;;;;5486105;26;20322;-74
2024/04/13 09:09:59;;;;;;;6.95;5.50;;;;;;;;;;5484493;26;20378;-73
2024/04/13 09:12:25;;;;;;;8.88;5.50;;;;;;;;;;5486440;26;20452;-73
2024/04/13 09:14:51;;;;;;;9.15;5.32;;;;;;;;;;5486087;26;20314;-73
2024/04/13 09:17:17;;;;;;;6.60;5.13;;;;;;;;;;5486089;26;20310;-73
2024/04/13 09:19:47;;;;;;;5.25;4.72;;;;;;;;;;5486575;26;20327;-73
2024/04/13 09:22:14;;;;;;;6.38;4.60;;;;;;;;;;5486037;26;20347;-73
2024/04/13 09:24:40;;;;;;;10.27;6.13;;;;;;;;;;5485785;26;20417;-74
2024/04/13 09:27:14;;;;;;;8.10;5.80;;;;;;;;;;5485862;26;20318;-73
2024/04/13 09:29:40;;;;;;;9.25;6.63;;;;;;;;;;5486094;26;20327;-72
2024/04/13 09:32:07;;;;;;;9.15;5.80;;;;;;;;;;5483893;26;20863;-72
2024/04/13 09:34:36;;;;;;;5.90;4.75;;;;;;;;;;5485722;26;20507;-72
2024/04/13 09:37:09;;;;;;;9.38;5.20;;;;;;;;;;5485910;26;20328;-72
2024/04/13 09:39:35;;;;;;;7.83;6.20;;;;;;;;;;5485637;26;20363;-72
2024/04/13 09:42:08;;;;;;;6.88;5.85;;;;;;;;;;5485634;26;20306;-72
2024/04/13 09:44:34;;;;;;;8.00;6.35;;;;;;;;;;5485775;26;20362;-73
2024/04/13 09:47:00;;;;;;;7.80;5.88;;;;;;;;;;5485703;26;20351;-73
2024/04/13 09:49:26;;;;;;;8.83;5.63;;;;;;;;;;5486738;26;20374;-80
2024/04/13 09:51:52;;;;;;;8.73;6.13;;;;;;;;;;5489971;26;20363;-79
2024/04/13 09:54:19;;;;;;;8.00;5.60;;;;;;;;;;5496503;26;20801;-81
2024/04/13 09:56:46;;;;;;;8.40;6.45;;;;;;;;;;5498932;26;20331;-80
2024/04/13 09:59:17;;;;;;;9.05;5.72;;;;;;;;;;5496540;26;20432;-78
2024/04/13 10:01:44;;;;;;;7.93;5.47;;;;;;;;;;5491175;26;20318;-78
2024/04/13 10:04:10;;;;;;;8.00;5.35;;;;;;;;;;5492145;26;20311;-78
2024/04/13 10:06:38;;;;;;;9.57;5.95;;;;;;;;;;5490075;26;20330;-79
2024/04/13 10:09:05;;;;;;;12.37;7.57;;;;;;;;;;5495163;26;20712;-78
2024/04/13 10:11:32;;;;;;;7.95;5.22;;;;;;;;;;5491578;26;20522;-79
2024/04/13 10:13:58;;;;;;;7.03;5.10;;;;;;;;;;5491790;26;20322;-80
2024/04/13 10:16:25;;;;;;;15.20;5.20;;;;;;;;;;5492960;26;20318;-80
2024/04/13 10:18:51;;;;;;;17.10;4.63;;;;;;;;;;5492106;26;20531;-84
2024/04/13 10:21:21;;;;;;;8.00;4.38;;;;;;;;;;5493426;26;20364;-83
2024/04/13 10:23:47;;;;;;;7.18;3.60;;;;;;;;;;5494308;26;20476;-84
2024/04/13 10:26:13;;;;;;;6.03;4.00;;;;;;;;;;5494217;26;20370;-84
2024/04/13 10:28:40;;;;;;;6.35;3.90;;;;;;;;;;5494887;26;20358;-84
2024/04/13 10:31:16;;;;;;;5.10;3.15;;;;;;;;;;5495639;26;20322;-85
2024/04/13 10:33:52;;;;;;;6.45;4.30;;;;;;;;;;5496474;26;20310;-85
2024/04/13 10:36:26;;;;;;;8.73;4.57;;;;;;;;;;5493854;26;20311;-84
2024/04/13 10:38:55;;;;;;;7.20;4.68;;;;;;;;;;5495776;26;20359;-85
2024/04/13 10:41:34;;;;;;;8.55;4.47;;;;;;;;;;5495183;26;20739;-84
2024/04/13 10:44:01;;;;;;;8.50;4.60;;;;;;;;;;5492510;26;20335;-85
2024/04/13 10:46:27;;;;;;;6.38;4.38;;;;;;;;;;5494336;26;20343;-85
2024/04/13 10:48:53;;;;;;;6.03;4.18;;;;;;;;;;5496667;26;20479;-85
2024/04/13 10:51:21;;;;;;;7.88;3.83;;;;;;;;;;5493789;26;20314;-85
2024/04/13 10:53:47;;;;;;;9.18;4.20;;;;;;;;;;5493409;26;20351;-84
2024/04/13 10:56:14;;;;;;;9.25;4.13;;;;;;;;;;5495608;26;20349;-84
2024/04/13 10:58:40;;;;;;;5.75;3.67;;;;;;;;;;5494591;26;20318;-85
2024/04/13 11:01:06;;;;;;;6.22;3.20;;;;;;;;;;5496238;26;20804;-85
2024/04/13 11:03:32;;;;;;;5.13;3.25;;;;;;;;;;5496400;26;20855;-87
2024/04/13 11:05:59;;;;;;;7.22;3.42;;;;;;;;;;5496474;26;20334;-85
2024/04/13 11:08:25;;;;;;;6.10;3.33;;;;;;;;;;5493410;26;20392;-85
2024/04/13 11:10:54;;;;;;;5.25;2.80;;;;;;;;;;5493730;26;20795;-84
2024/04/13 11:13:21;;;;;;;5.20;2.77;;;;;;;;;;5494634;26;20303;-84
2024/04/13 11:15:47;;;;;;;4.88;2.60;;;;;;;;;;5494832;26;20858;-84
2024/04/13 11:18:14;;;;;;;4.47;2.30;;;;;;;;;;5495608;26;20326;-85
2024/04/13 11:20:41;;;;;;;6.07;3.05;;;;;;;;;;5493581;26;20307;-85
2024/04/13 11:23:08;;;;;;;11.07;3.40;;;;;;;;;;5491414;26;20326;-85
2024/04/13 11:25:37;;;;;;;3.95;3.00;;;;;;;;;;5494781;26;20314;-85
2024/04/13 11:28:03;;;;;;;5.63;3.17;;;;;;;;;;5495132;26;20657;-84
2024/04/13 11:30:31;;;;;;;5.47;2.60;;;;;;;;;;5494967;26;20346;-84
2024/04/13 11:32:59;;;;;;;4.18;2.90;;;;;;;;;;5494075;26;20362;-85
2024/04/13 11:35:25;;;;;;;5.50;3.35;;;;;;;;;;5495208;26;20770;-84
2024/04/13 11:37:55;;;;;;;3.70;2.60;;;;;;;;;;5493375;26;20366;-84
2024/04/13 11:40:21;;;;;;;3.78;2.60;;;;;;;;;;5495540;26;20355;-84
2024/04/13 11:42:49;;;;;;;4.05;2.78;;;;;;;;;;5493180;26;20319;-85
2024/04/13 11:45:15;;;;;;;4.38;2.30;;;;;;;;;;5490964;26;20656;-84
2024/04/13 11:47:41;;;;;;;4.43;2.80;;;;;;;;;;5493760;26;20746;-85
2024/04/13 11:50:07;;;;;;;6.68;2.95;;;;;;;;;;5491903;26;20401;-85
2024/04/13 11:52:33;;;;;;;3.67;2.70;;;;;;;;;;5491918;26;20360;-85
2024/04/13 11:54:59;;;;;;;4.43;3.08;;;;;;;;;;5490785;26;20306;-84
2024/04/13 11:57:25;;;;;;;6.30;2.78;;;;;;;;;;5492629;26;20729;-85
2024/04/13 11:59:52;;;;;;;7.10;3.00;;;;;;;;;;5493022;26;20310;-85
2024/04/13 12:02:20;;;;;;;4.05;2.63;;;;;;;;;;5495937;26;20307;-85
2024/04/13 12:04:46;;;;;;;4.28;2.70;;;;;;;;;;5495999;26;20851;-84
2024/04/13 12:07:14;;;;;;;5.75;2.85;;;;;;;;;;5494178;26;20322;-85
2024/04/13 12:09:40;;;;;;;6.47;3.35;;;;;;;;;;5490546;26;20326;-86
2024/04/13 12:12:12;;;;;;;5.45;3.20;;;;;;;;;;5489308;26;20318;-85
2024/04/13 12:14:38;;;;;;;5.20;3.40;;;;;;;;;;5490912;26;20326;-85
2024/04/13 12:17:04;;;;;;;6.38;3.10;;;;;;;;;;5491439;26;20319;-85
2024/04/13 12:19:30;;;;;;;4.93;3.17;;;;;;;;;;5493422;26;20326;-85
2024/04/13 12:21:56;;;;;;;3.78;2.08;;;;;;;;;;5492910;26;20755;-85
2024/04/13 12:24:22;;;;;;;2.33;1.80;;;;;;;;;;5490057;26;20318;-85
2024/04/13 12:26:48;;;;;;;3.72;1.70;;;;;;;;;;5494165;26;20347;-85
2024/04/13 12:29:16;;;;;;;3.63;1.50;;;;;;;;;;5493734;26;20634;-85
2024/04/13 12:31:42;;;;;;;7.10;1.73;;;;;;;;;;5494231;26;20354;-84
2024/04/13 12:34:08;;;;;;;4.27;2.07;;;;;;;;;;5495385;26;20689;-85
2024/04/13 12:36:37;;;;;;;3.43;1.60;;;;;;;;;;5494631;26;20338;-85
2024/04/13 12:39:04;;;;;;;3.33;1.27;;;;;;;;;;5494207;26;20354;-85
2024/04/13 12:41:30;;;;;;;2.10;1.33;;;;;;;;;;5494372;26;20315;-84
2024/04/13 12:43:56;;;;;;;4.30;1.60;;;;;;;;;;5493893;26;20462;-83
2024/04/13 12:46:22;;;;;;;4.03;1.87;;;;;;;;;;5492722;26;20705;-83
2024/04/13 12:48:48;;;;;;;2.85;1.50;;;;;;;;;;5492199;26;20334;-83
2024/04/13 12:51:17;;;;;;;2.95;1.40;;;;;;;;;;5492099;26;20855;-83
2024/04/13 12:53:44;;;;;;;3.15;1.83;;;;;;;;;;5492104;26;20311;-82
2024/04/13 12:56:10;;;;;;;2.90;1.60;;;;;;;;;;5491187;26;20343;-82
2024/04/13 12:58:36;;;;;;;4.10;1.60;;;;;;;;;;5491004;26;20442;-83
2024/04/13 13:01:03;;;;;;;2.42;1.67;;;;;;;;;;5491362;26;20350;-82
2024/04/13 13:03:29;;;;;;;2.80;1.70;;;;;;;;;;5491853;26;20315;-83
2024/04/13 13:05:55;;;;;;;4.20;2.08;;;;;;;;;;5490266;26;20402;-83
2024/04/13 13:08:21;;;;;;;3.45;1.95;;;;;;;;;;5490976;26;20322;-83
2024/04/13 13:10:47;;;;;;;3.42;1.95;;;;;;;;;;5491538;26;20319;-83
2024/04/13 13:13:13;;;;;;;2.88;1.90;;;;;;;;;;5491078;26;20370;-82
2024/04/13 13:15:39;;;;;;;3.38;1.70;;;;;;;;;;5490504;26;20314;-82
2024/04/13 13:18:05;;;;;;;2.95;1.52;;;;;;;;;;5489518;26;20362;-82
2024/04/13 13:20:31;;;;;;;2.60;1.60;;;;;;;;;;5489719;26;20311;-82
2024/04/13 13:22:57;;;;;;;2.70;1.45;;;;;;;;;;5489595;26;20695;-83
2024/04/13 13:25:23;;;;;;;3.90;1.80;;;;;;;;;;5489549;26;20358;-83
2024/04/13 13:27:49;;;;;;;6.25;2.10;;;;;;;;;;5489218;26;20423;-83
2024/04/13 13:30:15;;;;;;;3.70;1.70;;;;;;;;;;5493960;26;20307;-84
2024/04/13 13:32:44;;;;;;;2.75;1.67;;;;;;;;;;5494590;26;20314;-84
2024/04/13 13:35:10;;;;;;;2.90;1.85;;;;;;;;;;5495384;26;20370;-84
2024/04/13 13:37:36;;;;;;;5.13;1.50;;;;;;;;;;5494152;26;20355;-83
2024/04/13 13:40:02;;;;;;;3.70;1.70;;;;;;;;;;5493897;26;20867;-83
2024/04/13 13:42:28;;;;;;;2.65;1.30;;;;;;;;;;5494956;26;20322;-84
2024/04/13 13:44:54;;;;;;;4.05;1.63;;;;;;;;;;5494371;26;20322;-83
2024/04/13 13:47:20;;;;;;;2.50;1.15;;;;;;;;;;5493564;26;20311;-83
2024/04/13 13:49:46;;;;;;;2.92;1.25;;;;;;;;;;5494866;26;20365;-83
2024/04/13 13:52:12;;;;;;;4.75;1.70;;;;;;;;;;5494164;26;20339;-83
2024/04/13 13:54:40;;;;;;;5.10;1.60;;;;;;;;;;5493851;26;20310;-83
2024/04/13 13:57:06;;;;;;;26.13;3.15;;;;;;;;;;5494066;26;20318;-83
2024/04/13 13:59:32;;;;;;;14.48;2.03;;;;;;;;;;5493234;26;20330;-83
2024/04/13 14:01:58;;;;;;;3.55;1.48;;;;;;;;;;5492443;26;20346;-82
2024/04/13 14:04:24;;;;;;;2.83;1.42;;;;;;;;;;5491801;26;20330;-82
2024/04/13 14:06:51;;;;;;;3.15;1.45;;;;;;;;;;5493951;26;20692;-82
2024/04/13 14:09:17;;;;;;;2.97;1.25;;;;;;;;;;5491863;26;20393;-83
2024/04/13 14:11:43;;;;;;;2.97;1.38;;;;;;;;;;5493542;26;20354;-83
2024/04/13 14:14:09;;;;;;;3.58;1.35;;;;;;;;;;5494498;26;20925;-82
2024/04/13 14:16:35;;;;;;;5.57;1.35;;;;;;;;;;5494978;26;20326;-84
2024/04/13 14:19:01;;;;;;;6.05;1.40;;;;;;;;;;5493120;26;20371;-83
2024/04/13 14:21:30;;;;;;;4.05;1.50;;;;;;;;;;5492547;26;20338;-84
2024/04/13 14:23:56;;;;;;;3.67;1.30;;;;;;;;;;5494381;26;20378;-85
2024/04/13 14:26:22;;;;;;;3.88;1.30;;;;;;;;;;5494987;26;20338;-82
2024/04/13 14:28:48;;;;;;;2.50;1.25;;;;;;;;;;5494335;26;20377;-82
2024/04/13 14:31:14;;;;;;;2.92;1.27;;;;;;;;;;5494876;26;20326;-84
2024/04/13 14:33:40;;;;;;;4.03;1.40;;;;;;;;;;5493640;26;20323;-81
2024/04/13 14:36:06;;;;;;;2.38;1.20;;;;;;;;;;5492312;26;20495;-83
2024/04/13 14:38:32;;;;;;;4.82;2.15;;;;;;;;;;5493206;26;20413;-84